Time;durP1;ratioP1;P1;durP2;ratioP2;P2;SDS_P1;SDS_P2;PMS_P1;PMS_P2;Temp;Humidity;BMP_temperature;BMP_pressure;BME280_temperature;BME280_humidity;BME280_pressure;Samples;Min_cycle;Max_cycle;Signal;HPM_P1;HPM_P2
2023/05/06 00:00:13;;;;;;;11.13;10.43;;;;;;;;;;4977214;28;20037;-50
2023/05/06 00:02:39;;;;;;;11.35;10.65;;;;;;;;;;4996070;28;20033;-50
2023/05/06 00:05:05;;;;;;;10.27;9.68;;;;;;;;;;4997684;28;20049;-51
2023/05/06 00:07:30;;;;;;;11.85;11.15;;;;;;;;;;4994811;28;20479;-52
2023/05/06 00:09:56;;;;;;;10.52;9.90;;;;;;;;;;4984911;28;20116;-52
2023/05/06 00:12:21;;;;;;;11.07;10.38;;;;;;;;;;4997720;28;20038;-51
2023/05/06 00:14:46;;;;;;;10.60;9.95;;;;;;;;;;5001301;28;20034;-53
2023/05/06 00:17:12;;;;;;;10.63;10.00;;;;;;;;;;5001132;28;20036;-48
2023/05/06 00:19:37;;;;;;;11.35;10.65;;;;;;;;;;5001295;28;20468;-52
2023/05/06 00:22:03;;;;;;;11.27;10.57;;;;;;;;;;5000520;28;20053;-48
2023/05/06 00:24:28;;;;;;;11.48;10.77;;;;;;;;;;4996158;28;20085;-51
2023/05/06 00:26:53;;;;;;;12.25;11.45;;;;;;;;;;4999898;28;20037;-52
2023/05/06 00:29:19;;;;;;;11.50;10.80;;;;;;;;;;5002199;28;20038;-51
2023/05/06 00:31:44;;;;;;;11.73;11.02;;;;;;;;;;4984079;28;20061;-50
2023/05/06 00:34:10;;;;;;;12.35;11.55;;;;;;;;;;4999984;28;20030;-52
2023/05/06 00:36:36;;;;;;;12.05;11.35;;;;;;;;;;4996109;28;20520;-52
2023/05/06 00:39:02;;;;;;;12.15;11.45;;;;;;;;;;4998506;28;20034;-50
2023/05/06 00:41:31;;;;;;;11.48;10.73;;;;;;;;;;5001624;28;20100;-52
2023/05/06 00:43:57;;;;;;;11.50;10.80;;;;;;;;;;4999813;28;20038;-52
2023/05/06 00:46:23;;;;;;;11.52;10.82;;;;;;;;;;4995159;28;20360;-48
2023/05/06 00:48:48;;;;;;;10.63;9.93;;;;;;;;;;5004065;28;20762;-50
2023/05/06 00:51:14;;;;;;;11.52;10.82;;;;;;;;;;5000439;28;20042;-51
2023/05/06 00:53:39;;;;;;;12.65;11.95;;;;;;;;;;5000850;28;20493;-51
2023/05/06 00:56:05;;;;;;;10.90;10.25;;;;;;;;;;5001403;28;20069;-49
2023/05/06 00:58:31;;;;;;;11.93;11.23;;;;;;;;;;4994359;28;20176;-47
2023/05/06 01:00:57;;;;;;;11.48;10.77;;;;;;;;;;4999792;28;20453;-49
2023/05/06 01:03:22;;;;;;;13.43;12.52;;;;;;;;;;4997631;28;20041;-50
2023/05/06 01:06:33;;;;;;;12.80;12.05;;;;;;;;;;4995404;28;20640;-51
2023/05/06 01:09:45;;;;;;;12.40;11.70;;;;;;;;;;4993103;28;20113;-52
2023/05/06 01:12:26;;;;;;;13.32;12.52;;;;;;;;;;4925669;29;20517;-49
2023/05/06 01:15:05;;;;;;;11.82;11.13;;;;;;;;;;4922604;29;20761;-51
2023/05/06 01:17:34;;;;;;;12.25;11.55;;;;;;;;;;4962387;28;20038;-50
2023/05/06 01:20:01;;;;;;;13.73;12.93;;;;;;;;;;5002857;28;20493;-50
2023/05/06 01:22:29;;;;;;;13.70;12.85;;;;;;;;;;4996439;28;20038;-52
2023/05/06 01:24:54;;;;;;;14.75;13.90;;;;;;;;;;4998493;28;20048;-52
2023/05/06 01:27:20;;;;;;;13.93;13.13;;;;;;;;;;4998739;28;20046;-53
2023/05/06 01:29:46;;;;;;;15.68;14.77;;;;;;;;;;4999892;28;20030;-52
2023/05/06 01:32:17;;;;;;;14.43;13.63;;;;;;;;;;4997440;28;20076;-52
2023/05/06 01:34:47;;;;;;;16.73;15.73;;;;;;;;;;5000042;28;20038;-51
2023/05/06 01:37:31;;;;;;;14.55;13.75;;;;;;;;;;4991039;28;20042;-51
2023/05/06 01:39:58;;;;;;;15.35;14.45;;;;;;;;;;5001588;28;20558;-53
2023/05/06 01:42:25;;;;;;;16.30;15.40;;;;;;;;;;5000553;28;20045;-52
2023/05/06 01:44:53;;;;;;;17.55;16.58;;;;;;;;;;4992966;28;20037;-51
2023/05/06 01:47:19;;;;;;;17.02;16.10;;;;;;;;;;4994072;28;20048;-49
2023/05/06 01:49:46;;;;;;;17.98;16.98;;;;;;;;;;5000420;28;20364;-54
2023/05/06 01:52:11;;;;;;;16.75;15.80;;;;;;;;;;4999967;28;20042;-52
2023/05/06 01:54:36;;;;;;;18.98;17.98;;;;;;;;;;4996489;28;20538;-51
2023/05/06 01:57:02;;;;;;;18.00;17.00;;;;;;;;;;4994857;28;20038;-52
2023/05/06 01:59:27;;;;;;;19.77;18.70;;;;;;;;;;4976351;28;20100;-53
2023/05/06 02:01:52;;;;;;;18.17;17.17;;;;;;;;;;4985580;28;20495;-49
2023/05/06 02:04:18;;;;;;;18.80;17.80;;;;;;;;;;4999210;28;20083;-52
2023/05/06 02:06:43;;;;;;;21.20;20.02;;;;;;;;;;4998527;28;20046;-53
2023/05/06 02:09:08;;;;;;;18.77;17.77;;;;;;;;;;4994034;28;20038;-49
2023/05/06 02:11:34;;;;;;;19.98;18.88;;;;;;;;;;4994776;28;20537;-50
2023/05/06 02:14:00;;;;;;;20.02;18.92;;;;;;;;;;4998964;28;20558;-49
2023/05/06 02:16:27;;;;;;;18.60;17.60;;;;;;;;;;4998588;28;20360;-52
2023/05/06 02:18:53;;;;;;;19.55;18.08;;;;;;;;;;4997881;28;20162;-51
2023/05/06 02:21:18;;;;;;;21.40;20.20;;;;;;;;;;4998154;28;20535;-50
2023/05/06 02:23:44;;;;;;;20.10;19.00;;;;;;;;;;4997252;28;20037;-50
2023/05/06 02:26:09;;;;;;;19.92;18.83;;;;;;;;;;4996907;28;20384;-49
2023/05/06 02:28:35;;;;;;;19.30;18.25;;;;;;;;;;4981849;28;20656;-51
2023/05/06 02:31:00;;;;;;;18.48;17.45;;;;;;;;;;4996968;28;20144;-51
2023/05/06 02:33:25;;;;;;;18.60;17.52;;;;;;;;;;4995397;28;20048;-50
2023/05/06 02:35:51;;;;;;;18.38;17.38;;;;;;;;;;4993458;28;20364;-51
2023/05/06 02:38:17;;;;;;;17.85;16.85;;;;;;;;;;4998660;28;20109;-53
2023/05/06 02:40:43;;;;;;;18.42;17.33;;;;;;;;;;4997134;28;20105;-51
2023/05/06 02:43:08;;;;;;;19.45;18.35;;;;;;;;;;4993600;28;20037;-52
2023/05/06 02:45:34;;;;;;;18.02;17.02;;;;;;;;;;4992661;28;20038;-51
2023/05/06 02:47:59;;;;;;;18.40;17.40;;;;;;;;;;4981051;28;20342;-52
2023/05/06 02:50:24;;;;;;;19.38;18.27;;;;;;;;;;4997237;28;20030;-52
2023/05/06 02:52:50;;;;;;;16.58;15.65;;;;;;;;;;4996095;28;20416;-53
2023/05/06 02:55:15;;;;;;;16.77;15.88;;;;;;;;;;4997714;28;20116;-53
2023/05/06 02:57:41;;;;;;;15.88;14.98;;;;;;;;;;4995543;28;20022;-54
2023/05/06 03:00:09;;;;;;;15.65;14.75;;;;;;;;;;4997481;28;20049;-53
2023/05/06 03:02:35;;;;;;;15.60;14.70;;;;;;;;;;4989084;28;20105;-52
2023/05/06 03:05:03;;;;;;;16.48;15.48;;;;;;;;;;4999107;28;20120;-49
2023/05/06 03:07:29;;;;;;;14.95;14.10;;;;;;;;;;4996779;28;20488;-50
2023/05/06 03:09:54;;;;;;;17.00;16.02;;;;;;;;;;4995325;28;20064;-49
2023/05/06 03:12:20;;;;;;;14.63;13.80;;;;;;;;;;5000920;28;20439;-50
2023/05/06 03:14:45;;;;;;;14.85;14.02;;;;;;;;;;4996429;28;20427;-50
2023/05/06 03:17:11;;;;;;;15.15;14.25;;;;;;;;;;4997692;28;20053;-49
2023/05/06 03:19:36;;;;;;;15.73;14.82;;;;;;;;;;4994409;28;20029;-48
2023/05/06 03:22:01;;;;;;;13.68;12.88;;;;;;;;;;4994949;28;20111;-52
2023/05/06 03:24:27;;;;;;;13.98;13.13;;;;;;;;;;4998303;28;20738;-49
2023/05/06 03:26:52;;;;;;;12.98;12.23;;;;;;;;;;5000022;28;20038;-51
2023/05/06 03:29:18;;;;;;;13.07;12.30;;;;;;;;;;4997894;28;20034;-51
2023/05/06 03:31:43;;;;;;;13.25;12.50;;;;;;;;;;4996826;28;20115;-50
2023/05/06 03:34:08;;;;;;;13.00;12.20;;;;;;;;;;4994820;28;20037;-49
2023/05/06 03:36:34;;;;;;;13.10;12.30;;;;;;;;;;4996196;28;20042;-52
2023/05/06 03:38:59;;;;;;;12.60;11.90;;;;;;;;;;4994144;28;20431;-49
2023/05/06 03:41:25;;;;;;;13.45;12.63;;;;;;;;;;4995417;28;20104;-52
2023/05/06 03:43:51;;;;;;;14.07;13.27;;;;;;;;;;4992591;28;20736;-51
2023/05/06 03:46:16;;;;;;;13.05;12.25;;;;;;;;;;4979064;28;20132;-53
2023/05/06 03:48:41;;;;;;;13.18;12.43;;;;;;;;;;5002621;28;20116;-52
2023/05/06 03:51:07;;;;;;;12.80;11.90;;;;;;;;;;5000044;28;20120;-52
2023/05/06 03:53:32;;;;;;;12.80;12.07;;;;;;;;;;5004192;28;20048;-51
2023/05/06 03:55:58;;;;;;;12.57;11.88;;;;;;;;;;5000501;28;20042;-54
2023/05/06 03:58:23;;;;;;;12.45;11.65;;;;;;;;;;5000291;28;20025;-48
2023/05/06 04:00:49;;;;;;;11.50;10.80;;;;;;;;;;5000894;28;20046;-50
2023/05/06 04:03:14;;;;;;;12.77;11.98;;;;;;;;;;4998626;28;20030;-52
2023/05/06 04:05:40;;;;;;;12.23;11.52;;;;;;;;;;4997075;28;20026;-54
2023/05/06 04:08:05;;;;;;;10.90;10.20;;;;;;;;;;4984296;28;20487;-51
2023/05/06 04:10:31;;;;;;;10.90;10.25;;;;;;;;;;4998062;28;20042;-52
2023/05/06 04:12:56;;;;;;;11.55;10.85;;;;;;;;;;4985270;28;20045;-50
2023/05/06 04:15:22;;;;;;;11.90;11.20;;;;;;;;;;4998181;28;20117;-49
2023/05/06 04:17:48;;;;;;;10.80;10.10;;;;;;;;;;5001260;28;20521;-52
2023/05/06 04:20:13;;;;;;;11.45;10.75;;;;;;;;;;4998302;28;20044;-51
2023/05/06 04:22:39;;;;;;;11.15;10.45;;;;;;;;;;4998502;28;20828;-51
2023/05/06 04:25:05;;;;;;;11.98;11.18;;;;;;;;;;4999671;28;20041;-49
2023/05/06 04:27:31;;;;;;;11.15;10.45;;;;;;;;;;4999390;28;20107;-53
2023/05/06 04:29:59;;;;;;;11.13;10.43;;;;;;;;;;4998054;28;20034;-49
2023/05/06 04:32:25;;;;;;;11.25;10.55;;;;;;;;;;4996244;28;20030;-51
2023/05/06 04:34:52;;;;;;;11.20;10.50;;;;;;;;;;5002626;28;20046;-48
2023/05/06 04:37:20;;;;;;;11.90;11.20;;;;;;;;;;4999118;28;20035;-51
2023/05/06 04:39:45;;;;;;;11.38;10.68;;;;;;;;;;4999778;28;20030;-50
2023/05/06 04:42:11;;;;;;;11.13;10.43;;;;;;;;;;4994133;28;20056;-51
2023/05/06 04:44:37;;;;;;;11.88;11.05;;;;;;;;;;4992889;28;20141;-48
2023/05/06 04:47:02;;;;;;;10.90;10.23;;;;;;;;;;4995809;28;20038;-48
2023/05/06 04:49:27;;;;;;;9.98;9.38;;;;;;;;;;5001000;28;20415;-49
2023/05/06 04:51:52;;;;;;;9.70;9.10;;;;;;;;;;4999664;28;20030;-49
2023/05/06 04:54:18;;;;;;;10.05;9.45;;;;;;;;;;4995622;28;20038;-50
2023/05/06 04:56:43;;;;;;;9.52;8.93;;;;;;;;;;4996514;28;20129;-51
2023/05/06 04:59:08;;;;;;;11.00;10.18;;;;;;;;;;4997817;28;20096;-52
2023/05/06 05:01:34;;;;;;;10.35;9.75;;;;;;;;;;4984751;28;20037;-48
2023/05/06 05:03:59;;;;;;;10.95;10.25;;;;;;;;;;4983958;28;20535;-49
2023/05/06 05:06:24;;;;;;;11.57;10.15;;;;;;;;;;4989579;28;20428;-53
2023/05/06 05:08:50;;;;;;;11.05;10.25;;;;;;;;;;4991282;28;20026;-50
2023/05/06 05:11:15;;;;;;;10.35;9.73;;;;;;;;;;4997985;28;20075;-51
2023/05/06 05:13:41;;;;;;;10.23;9.52;;;;;;;;;;4999782;28;20108;-51
2023/05/06 05:16:06;;;;;;;10.32;9.73;;;;;;;;;;5000720;28;20065;-48
2023/05/06 05:18:31;;;;;;;11.27;10.57;;;;;;;;;;4994426;28;20129;-48
2023/05/06 05:20:57;;;;;;;11.80;10.80;;;;;;;;;;4994485;28;20041;-53
2023/05/06 05:23:22;;;;;;;18.40;10.75;;;;;;;;;;4995163;28;20034;-50
2023/05/06 05:25:47;;;;;;;11.48;10.77;;;;;;;;;;4998832;28;20049;-49
2023/05/06 05:28:13;;;;;;;12.90;12.10;;;;;;;;;;4999940;28;20054;-49
2023/05/06 05:30:38;;;;;;;11.90;11.20;;;;;;;;;;4995475;28;20121;-52
2023/05/06 05:33:03;;;;;;;13.05;12.15;;;;;;;;;;4996797;28;20061;-52
2023/05/06 05:35:29;;;;;;;20.88;12.70;;;;;;;;;;4998493;28;20044;-53
2023/05/06 05:37:54;;;;;;;11.95;11.25;;;;;;;;;;4999288;28;20539;-50
2023/05/06 05:40:20;;;;;;;14.20;13.30;;;;;;;;;;4997724;28;20852;-59
2023/05/06 05:42:45;;;;;;;12.60;11.90;;;;;;;;;;4994695;28;20040;-59
2023/05/06 05:45:10;;;;;;;12.75;12.05;;;;;;;;;;4995191;28;20127;-60
2023/05/06 05:47:36;;;;;;;14.85;13.95;;;;;;;;;;4994500;28;20101;-59
2023/05/06 05:50:01;;;;;;;13.50;12.70;;;;;;;;;;4997168;28;20068;-59
2023/05/06 05:52:26;;;;;;;13.48;12.68;;;;;;;;;;4995924;28;20656;-58
2023/05/06 05:54:52;;;;;;;13.15;12.35;;;;;;;;;;4986410;28;20034;-58
2023/05/06 05:57:17;;;;;;;16.00;15.10;;;;;;;;;;4984585;28;20041;-59
2023/05/06 05:59:42;;;;;;;14.10;13.30;;;;;;;;;;4995956;28;20130;-59
2023/05/06 06:02:08;;;;;;;14.63;13.77;;;;;;;;;;4998740;28;20042;-58
2023/05/06 06:04:33;;;;;;;16.20;15.30;;;;;;;;;;4996334;28;20033;-60
2023/05/06 06:07:00;;;;;;;15.95;15.05;;;;;;;;;;4992528;28;20049;-60
2023/05/06 06:09:26;;;;;;;17.55;16.55;;;;;;;;;;4996775;28;20091;-59
2023/05/06 06:11:51;;;;;;;15.48;14.57;;;;;;;;;;5000852;28;20038;-59
2023/05/06 06:14:17;;;;;;;18.65;17.63;;;;;;;;;;4996490;28;20034;-59
2023/05/06 06:16:42;;;;;;;18.15;17.10;;;;;;;;;;4998128;28;20045;-59
2023/05/06 06:19:07;;;;;;;13.25;12.45;;;;;;;;;;4997011;28;20669;-59
2023/05/06 06:21:33;;;;;;;12.70;11.88;;;;;;;;;;4997152;28;20030;-59
2023/05/06 06:23:58;;;;;;;12.25;11.55;;;;;;;;;;4999407;28;20095;-59
2023/05/06 06:26:23;;;;;;;10.05;9.45;;;;;;;;;;4999461;28;20536;-60
2023/05/06 06:28:49;;;;;;;9.95;9.35;;;;;;;;;;4994951;28;20111;-59
2023/05/06 06:31:14;;;;;;;10.68;10.00;;;;;;;;;;4996234;28;20067;-59
2023/05/06 06:33:40;;;;;;;11.10;10.30;;;;;;;;;;4998090;28;20046;-59
2023/05/06 06:36:05;;;;;;;11.23;10.52;;;;;;;;;;4987714;28;20069;-59
2023/05/06 06:38:31;;;;;;;11.10;10.40;;;;;;;;;;4996874;28;20037;-59
2023/05/06 06:40:56;;;;;;;10.75;10.13;;;;;;;;;;4995336;28;20042;-59
2023/05/06 06:43:23;;;;;;;14.25;13.45;;;;;;;;;;4994987;28;20034;-59
2023/05/06 06:45:49;;;;;;;14.68;13.85;;;;;;;;;;4996643;28;20103;-59
2023/05/06 06:48:15;;;;;;;16.45;15.52;;;;;;;;;;4998766;28;20053;-60
2023/05/06 06:50:41;;;;;;;18.65;17.63;;;;;;;;;;4993411;28;20089;-59
2023/05/06 06:53:06;;;;;;;20.02;18.95;;;;;;;;;;4997385;28;20124;-59
2023/05/06 06:55:32;;;;;;;20.05;18.95;;;;;;;;;;4978269;28;20038;-60
2023/05/06 06:57:57;;;;;;;21.23;20.08;;;;;;;;;;4961141;28;20041;-60
2023/05/06 07:00:23;;;;;;;23.77;22.50;;;;;;;;;;4995894;28;20092;-60
2023/05/06 07:02:48;;;;;;;31.80;30.00;;;;;;;;;;4996188;28;20030;-60
2023/05/06 07:05:14;;;;;;;31.80;30.15;;;;;;;;;;4992081;28;20034;-59
2023/05/06 07:07:39;;;;;;;28.17;26.70;;;;;;;;;;4997315;28;20120;-60
2023/05/06 07:10:05;;;;;;;29.10;27.60;;;;;;;;;;5000286;28;20121;-59
2023/05/06 07:12:31;;;;;;;32.95;31.25;;;;;;;;;;4995273;28;20578;-59
2023/05/06 07:14:56;;;;;;;34.17;32.08;;;;;;;;;;4997807;28;20038;-60
2023/05/06 07:17:21;;;;;;;31.33;29.70;;;;;;;;;;4993686;28;20089;-59
2023/05/06 07:19:47;;;;;;;33.13;31.42;;;;;;;;;;4994173;28;20061;-60
2023/05/06 07:22:12;;;;;;;28.23;26.75;;;;;;;;;;4998611;28;20030;-59
2023/05/06 07:24:37;;;;;;;21.00;19.90;;;;;;;;;;4994798;28;20038;-60
2023/05/06 07:27:03;;;;;;;17.55;16.55;;;;;;;;;;4998576;28;20422;-60
2023/05/06 07:29:29;;;;;;;14.57;13.77;;;;;;;;;;4995314;28;20514;-60
2023/05/06 07:31:54;;;;;;;16.35;15.45;;;;;;;;;;4996819;28;20040;-60
2023/05/06 07:34:19;;;;;;;16.10;15.20;;;;;;;;;;4998625;28;21013;-59
2023/05/06 07:36:45;;;;;;;12.85;12.10;;;;;;;;;;4997552;28;20037;-60
2023/05/06 07:39:12;;;;;;;12.05;11.35;;;;;;;;;;4995030;28;20030;-60
2023/05/06 07:41:37;;;;;;;13.48;12.68;;;;;;;;;;4992962;28;20033;-60
2023/05/06 07:44:03;;;;;;;12.02;11.32;;;;;;;;;;4996435;28;20033;-60
2023/05/06 07:46:28;;;;;;;13.02;12.23;;;;;;;;;;4994157;28;20379;-60
2023/05/06 07:48:54;;;;;;;13.90;13.10;;;;;;;;;;4996881;28;20583;-60
2023/05/06 07:51:20;;;;;;;12.40;11.60;;;;;;;;;;4997197;28;20041;-59
2023/05/06 07:53:45;;;;;;;12.40;11.70;;;;;;;;;;4995259;28;20482;-59
2023/05/06 07:56:10;;;;;;;12.13;11.43;;;;;;;;;;4997922;28;20476;-60
2023/05/06 07:58:36;;;;;;;14.02;13.23;;;;;;;;;;4994760;28;20777;-59
2023/05/06 08:01:02;;;;;;;12.93;12.13;;;;;;;;;;4999452;28;20034;-59
2023/05/06 08:03:29;;;;;;;14.43;13.63;;;;;;;;;;4997931;28;20033;-61
2023/05/06 08:05:54;;;;;;;14.23;12.98;;;;;;;;;;4993639;28;20172;-60
2023/05/06 08:08:22;;;;;;;14.73;13.90;;;;;;;;;;4996148;28;20113;-62
2023/05/06 08:10:47;;;;;;;12.73;12.00;;;;;;;;;;4995852;28;20146;-61
2023/05/06 08:13:13;;;;;;;14.80;13.98;;;;;;;;;;4995425;28;20484;-60
2023/05/06 08:15:38;;;;;;;13.10;12.27;;;;;;;;;;4994749;28;20044;-59
2023/05/06 08:18:04;;;;;;;14.40;13.57;;;;;;;;;;4991900;28;20034;-60
2023/05/06 08:20:30;;;;;;;14.63;13.82;;;;;;;;;;4994326;28;20038;-60
2023/05/06 08:22:55;;;;;;;13.52;12.73;;;;;;;;;;4996306;28;20065;-61
2023/05/06 08:25:20;;;;;;;12.00;11.30;;;;;;;;;;4994284;28;20042;-60
2023/05/06 08:27:46;;;;;;;13.13;12.32;;;;;;;;;;4994798;28;20100;-60
2023/05/06 08:30:12;;;;;;;12.63;11.93;;;;;;;;;;4992126;28;20061;-60
2023/05/06 08:32:38;;;;;;;25.77;24.40;;;;;;;;;;4994413;28;20424;-60
2023/05/06 08:35:07;;;;;;;27.08;25.67;;;;;;;;;;4998738;28;20046;-60
2023/05/06 08:37:32;;;;;;;36.15;34.30;;;;;;;;;;4998162;28;20126;-60
2023/05/06 08:39:58;;;;;;;36.60;34.72;;;;;;;;;;4999487;28;20156;-60
2023/05/06 08:42:25;;;;;;;33.85;32.08;;;;;;;;;;4988080;28;20178;-60
2023/05/06 08:44:51;;;;;;;36.03;34.22;;;;;;;;;;4999036;28;20088;-60
2023/05/06 08:47:18;;;;;;;34.17;32.42;;;;;;;;;;5002028;28;20037;-60
2023/05/06 08:49:44;;;;;;;33.28;31.55;;;;;;;;;;5002163;28;20026;-58
2023/05/06 08:52:10;;;;;;;39.03;37.03;;;;;;;;;;5000014;28;20046;-59
2023/05/06 08:54:37;;;;;;;37.25;35.33;;;;;;;;;;4997899;28;20042;-58
2023/05/06 08:57:07;;;;;;;35.63;33.80;;;;;;;;;;5000120;28;20038;-58
2023/05/06 08:59:33;;;;;;;34.58;32.80;;;;;;;;;;5000660;28;20041;-58
2023/05/06 09:02:00;;;;;;;35.92;34.08;;;;;;;;;;4994066;28;20407;-58
2023/05/06 09:04:26;;;;;;;38.88;36.90;;;;;;;;;;4999456;28;20073;-58
2023/05/06 09:06:51;;;;;;;27.48;25.98;;;;;;;;;;4981414;28;20037;-58
2023/05/06 09:09:17;;;;;;;24.92;23.60;;;;;;;;;;5000484;28;20673;-58
2023/05/06 09:11:42;;;;;;;30.65;29.08;;;;;;;;;;5002385;28;20025;-59
2023/05/06 09:14:12;;;;;;;27.52;26.10;;;;;;;;;;5000244;28;20476;-58
2023/05/06 09:16:40;;;;;;;32.05;30.35;;;;;;;;;;4980789;28;20483;-59
2023/05/06 09:19:05;;;;;;;33.53;31.83;;;;;;;;;;4996640;28;20056;-59
2023/05/06 09:21:35;;;;;;;31.02;29.40;;;;;;;;;;5000382;28;20038;-59
2023/05/06 09:24:01;;;;;;;;;;;;;;;;;;4997874;28;20038;-59
2023/05/06 09:26:31;;;;;;;26.88;25.48;;;;;;;;;;4996894;28;20004;-58
2023/05/06 09:28:57;;;;;;;26.98;25.55;;;;;;;;;;4994163;28;20140;-59
2023/05/06 09:31:24;;;;;;;30.77;29.17;;;;;;;;;;4998272;28;20038;-59
2023/05/06 09:33:51;;;;;;;31.83;30.17;;;;;;;;;;4999366;28;20089;-59
2023/05/06 09:36:16;;;;;;;35.10;33.30;;;;;;;;;;4999209;28;20141;-59
2023/05/06 09:38:42;;;;;;;32.05;30.40;;;;;;;;;;4998685;28;20423;-59
2023/05/06 09:41:08;;;;;;;34.50;32.70;;;;;;;;;;4998044;28;20615;-59
2023/05/06 09:43:36;;;;;;;35.28;33.47;;;;;;;;;;4996987;28;20038;-59
2023/05/06 09:46:04;;;;;;;34.90;33.10;;;;;;;;;;4998529;28;20407;-59
2023/05/06 09:48:30;;;;;;;33.60;31.90;;;;;;;;;;4997937;28;20076;-59
2023/05/06 09:50:56;;;;;;;38.38;36.42;;;;;;;;;;4997745;28;20527;-59
2023/05/06 09:53:22;;;;;;;36.00;34.17;;;;;;;;;;4997436;28;20038;-59
2023/05/06 09:55:48;;;;;;;34.88;33.08;;;;;;;;;;4995447;28;20064;-59
2023/05/06 09:58:15;;;;;;;35.50;33.67;;;;;;;;;;4996799;28;20489;-59
2023/05/06 10:00:42;;;;;;;32.17;30.42;;;;;;;;;;4994023;28;20029;-59
2023/05/06 10:03:10;;;;;;;33.33;31.33;;;;;;;;;;4996101;28;20041;-60
2023/05/06 10:05:36;;;;;;;32.92;31.23;;;;;;;;;;4997408;28;20676;-60
2023/05/06 10:08:03;;;;;;;32.55;30.85;;;;;;;;;;4998566;28;20169;-60
2023/05/06 10:10:28;;;;;;;36.42;34.53;;;;;;;;;;4999537;28;20045;-60
2023/05/06 10:12:54;;;;;;;29.80;28.25;;;;;;;;;;4996631;28;20041;-60
2023/05/06 10:15:20;;;;;;;30.48;28.88;;;;;;;;;;4995937;28;20582;-60
2023/05/06 10:17:47;;;;;;;27.45;26.00;;;;;;;;;;4996221;28;20573;-60
2023/05/06 10:20:14;;;;;;;29.20;27.70;;;;;;;;;;4995744;28;20038;-60
2023/05/06 10:22:52;;;;;;;29.23;27.73;;;;;;;;;;4999347;28;20567;-60
2023/05/06 10:25:38;;;;;;;26.75;25.33;;;;;;;;;;4998962;28;20049;-60
2023/05/06 10:28:06;;;;;;;25.17;23.83;;;;;;;;;;4993315;28;20150;-59
2023/05/06 10:30:35;;;;;;;30.20;28.63;;;;;;;;;;4998087;28;20032;-60
2023/05/06 10:33:09;;;;;;;27.75;26.27;;;;;;;;;;4994560;28;20041;-60
2023/05/06 10:35:45;;;;;;;30.48;28.88;;;;;;;;;;4996592;28;20038;-60
2023/05/06 10:38:22;;;;;;;32.63;30.92;;;;;;;;;;4996546;28;20097;-60
2023/05/06 10:40:48;;;;;;;35.63;33.78;;;;;;;;;;4999215;28;20037;-60
2023/05/06 10:43:38;;;;;;;38.13;36.13;;;;;;;;;;4999830;28;20041;-52
2023/05/06 10:46:07;;;;;;;36.67;34.78;;;;;;;;;;4987520;28;20041;-51
2023/05/06 10:48:37;;;;;;;35.72;33.85;;;;;;;;;;4999133;28;20053;-54
2023/05/06 10:51:14;;;;;;;40.50;38.42;;;;;;;;;;4993391;28;20062;-51
2023/05/06 10:54:03;;;;;;;41.58;39.42;;;;;;;;;;4995002;28;20054;-52
2023/05/06 10:56:49;;;;;;;40.22;38.17;;;;;;;;;;4998695;28;20464;-52
2023/05/06 10:59:22;;;;;;;39.30;37.30;;;;;;;;;;4986113;28;20100;-51
2023/05/06 11:02:08;;;;;;;40.67;38.58;;;;;;;;;;4998199;28;20617;-51
2023/05/06 11:04:33;;;;;;;50.40;47.88;;;;;;;;;;4992739;28;20123;-50
2023/05/06 11:07:13;;;;;;;67.30;63.97;;;;;;;;;;4995286;28;20034;-54
2023/05/06 11:09:59;;;;;;;79.18;75.28;;;;;;;;;;4996512;28;20085;-52
2023/05/06 11:12:47;;;;;;;82.82;78.75;;;;;;;;;;4995413;28;20483;-52
2023/05/06 11:15:41;;;;;;;78.40;74.53;;;;;;;;;;4995095;28;20042;-52
2023/05/06 11:18:26;;;;;;;90.82;86.38;;;;;;;;;;4998228;28;20033;-51
2023/05/06 11:21:03;;;;;;;86.25;82.00;;;;;;;;;;4999890;28;20100;-52
2023/05/06 11:23:41;;;;;;;94.32;89.70;;;;;;;;;;4998964;28;20158;-52
2023/05/06 11:26:10;;;;;;;95.30;90.60;;;;;;;;;;4996135;28;20080;-52
2023/05/06 11:28:37;;;;;;;92.60;88.05;;;;;;;;;;4994641;28;20041;-52
2023/05/06 11:31:03;;;;;;;82.80;78.70;;;;;;;;;;4997053;28;20033;-53
2023/05/06 11:33:33;;;;;;;98.40;93.57;;;;;;;;;;4995242;28;20034;-52
2023/05/06 11:35:59;;;;;;;80.65;76.70;;;;;;;;;;4994476;28;20069;-52
2023/05/06 11:38:26;;;;;;;75.32;71.57;;;;;;;;;;4993080;28;20038;-53
2023/05/06 11:40:51;;;;;;;96.43;91.63;;;;;;;;;;4997429;28;20034;-55
2023/05/06 11:43:17;;;;;;;73.75;70.10;;;;;;;;;;4983582;28;20029;-51
2023/05/06 11:45:51;;;;;;;93.00;88.40;;;;;;;;;;4996254;28;20137;-52
2023/05/06 11:48:17;;;;;;;86.30;82.03;;;;;;;;;;4998236;28;20046;-51
2023/05/06 11:50:49;;;;;;;97.28;92.47;;;;;;;;;;4997506;28;20034;-52
2023/05/06 11:53:19;;;;;;;98.72;93.88;;;;;;;;;;4995712;28;20151;-52
2023/05/06 11:55:46;;;;;;;93.50;88.90;;;;;;;;;;4992740;28;20073;-49
2023/05/06 11:58:15;;;;;;;107.50;102.22;;;;;;;;;;4996023;28;20030;-54
2023/05/06 12:00:51;;;;;;;107.55;102.28;;;;;;;;;;4995853;28;20025;-50
2023/05/06 12:03:18;;;;;;;102.85;97.80;;;;;;;;;;4994446;28;20483;-52
2023/05/06 12:05:43;;;;;;;97.38;92.60;;;;;;;;;;4995253;28;20034;-54
2023/05/06 12:08:11;;;;;;;96.43;91.70;;;;;;;;;;4973224;28;20029;-50
2023/05/06 12:10:38;;;;;;;87.35;83.07;;;;;;;;;;4996978;28;20037;-51
2023/05/06 12:13:05;;;;;;;81.10;77.10;;;;;;;;;;5001094;28;20061;-52
2023/05/06 12:15:33;;;;;;;77.85;74.00;;;;;;;;;;4998094;28;20076;-53
2023/05/06 12:17:58;;;;;;;54.17;51.45;;;;;;;;;;4999532;28;20790;-53
2023/05/06 12:20:24;;;;;;;62.50;59.38;;;;;;;;;;4991138;28;20030;-53
2023/05/06 12:23:09;;;;;;;76.90;73.10;;;;;;;;;;4998719;28;20095;-51
2023/05/06 12:25:35;;;;;;;72.72;69.13;;;;;;;;;;4995938;28;20041;-49
2023/05/06 12:28:00;;;;;;;64.72;61.53;;;;;;;;;;4996576;28;20423;-60
2023/05/06 12:30:33;;;;;;;62.47;59.35;;;;;;;;;;4988751;28;20050;-60
2023/05/06 12:33:00;;;;;;;76.43;72.68;;;;;;;;;;5000646;28;20033;-60
2023/05/06 12:35:30;;;;;;;78.70;74.80;;;;;;;;;;4999735;28;20407;-61
2023/05/06 12:38:05;;;;;;;76.85;73.05;;;;;;;;;;4995534;28;20061;-61
2023/05/06 12:40:31;;;;;;;54.28;51.58;;;;;;;;;;4999668;28;20040;-53
2023/05/06 12:42:57;;;;;;;70.13;66.57;;;;;;;;;;5001912;28;20037;-49
2023/05/06 12:45:22;;;;;;;68.63;65.03;;;;;;;;;;4997115;28;20594;-51
2023/05/06 12:47:53;;;;;;;70.63;67.13;;;;;;;;;;4981206;28;20430;-53
2023/05/06 12:50:30;;;;;;;;;;;;;;;;;;5000328;28;20137;-60
2023/05/06 12:52:56;;;;;;;84.70;80.55;;;;;;;;;;4999014;28;19945;-52
2023/05/06 12:55:24;;;;;;;90.85;86.35;;;;;;;;;;4998286;28;20033;-61
2023/05/06 12:57:50;;;;;;;100.93;95.97;;;;;;;;;;4998714;28;20109;-60
2023/05/06 13:00:16;;;;;;;93.43;88.82;;;;;;;;;;4999335;28;20092;-60
2023/05/06 13:02:42;;;;;;;77.63;73.80;;;;;;;;;;4995068;28;20038;-61
2023/05/06 13:05:07;;;;;;;33.35;31.65;;;;;;;;;;4997935;28;20041;-53
2023/05/06 13:07:33;;;;;;;46.55;44.20;;;;;;;;;;4996539;28;20137;-54
2023/05/06 13:09:58;;;;;;;61.10;58.05;;;;;;;;;;4980899;28;20839;-61
2023/05/06 13:12:23;;;;;;;25.20;23.90;;;;;;;;;;4998948;28;20034;-61
2023/05/06 13:14:49;;;;;;;59.15;56.20;;;;;;;;;;4996670;28;20045;-60
2023/05/06 13:17:14;;;;;;;33.47;31.77;;;;;;;;;;4981820;28;20408;-61
2023/05/06 13:19:40;;;;;;;24.08;22.77;;;;;;;;;;4998146;28;20030;-60
2023/05/06 13:22:05;;;;;;;25.23;23.92;;;;;;;;;;4997133;28;20042;-61
2023/05/06 13:24:31;;;;;;;26.15;24.75;;;;;;;;;;4997949;28;20093;-61
2023/05/06 13:26:59;;;;;;;25.55;24.23;;;;;;;;;;4996126;28;20037;-61
2023/05/06 13:29:25;;;;;;;24.15;22.85;;;;;;;;;;5000563;28;20093;-61
2023/05/06 13:31:50;;;;;;;26.85;25.45;;;;;;;;;;4999982;28;20029;-61
2023/05/06 13:34:16;;;;;;;27.63;26.15;;;;;;;;;;5000543;28;20416;-61
2023/05/06 13:36:42;;;;;;;34.58;32.78;;;;;;;;;;4995570;28;20034;-62
2023/05/06 13:39:08;;;;;;;30.63;29.02;;;;;;;;;;4997872;28;20033;-62
2023/05/06 13:41:33;;;;;;;32.80;31.10;;;;;;;;;;4998484;28;20033;-61
2023/05/06 13:43:59;;;;;;;31.73;30.08;;;;;;;;;;4999300;28;20593;-62
2023/05/06 13:46:26;;;;;;;48.05;45.63;;;;;;;;;;4998526;28;20041;-61
2023/05/06 13:48:52;;;;;;;49.30;46.80;;;;;;;;;;4996555;28;20030;-61
2023/05/06 13:51:17;;;;;;;45.35;43.05;;;;;;;;;;4997590;28;20121;-61
2023/05/06 13:53:42;;;;;;;37.55;35.65;;;;;;;;;;4999926;28;20447;-61
2023/05/06 13:56:08;;;;;;;34.78;33.00;;;;;;;;;;5000048;28;20479;-61
2023/05/06 13:58:33;;;;;;;36.33;34.45;;;;;;;;;;4999074;28;20025;-61
2023/05/06 14:00:59;;;;;;;41.80;39.63;;;;;;;;;;4996103;28;20526;-61
2023/05/06 14:03:24;;;;;;;45.92;43.60;;;;;;;;;;5001262;28;20121;-61
2023/05/06 14:05:50;;;;;;;36.60;34.70;;;;;;;;;;4980146;28;20034;-61
2023/05/06 14:08:16;;;;;;;33.70;31.95;;;;;;;;;;4999805;28;20031;-62
2023/05/06 14:10:42;;;;;;;32.42;30.73;;;;;;;;;;4998594;28;20081;-61
2023/05/06 14:13:07;;;;;;;28.27;26.77;;;;;;;;;;4995648;28;20045;-61
2023/05/06 14:15:33;;;;;;;27.85;26.30;;;;;;;;;;4987680;28;20029;-61
2023/05/06 14:17:58;;;;;;;24.90;23.60;;;;;;;;;;4999080;28;20034;-60